Time;durP1;ratioP1;P1;durP2;ratioP2;P2;SDS_P1;SDS_P2;PMS_P1;PMS_P2;Temp;Humidity;BMP_temperature;BMP_pressure;BME280_temperature;BME280_humidity;BME280_pressure;Samples;Min_cycle;Max_cycle;Signal;HPM_P1;HPM_P2
2021/08/08 00:00:24;;;;;;;6.38;2.70;;;;;;;;;;6184577;28;20112;-70
2021/08/08 00:03:27;;;;;;;6.55;3.38;;;;;;;;;;6188509;28;20098;-69
2021/08/08 00:06:29;;;;;;;;;;;;;;;;;;6179843;28;20096;-69
2021/08/08 00:09:31;;;;;;;5.82;2.60;;;;;;;;;;6191785;28;19921;-70
2021/08/08 00:12:32;;;;;;;10.73;3.08;;;;;;;;;;6188062;28;20181;-69
2021/08/08 00:15:35;;;;;;;6.05;2.70;;;;;;;;;;6187164;28;20049;-69
2021/08/08 00:18:38;;;;;;;7.43;2.67;;;;;;;;;;6194551;28;20050;-69
2021/08/08 00:21:39;;;;;;;5.50;2.97;;;;;;;;;;6185627;28;20140;-69
2021/08/08 00:24:41;;;;;;;6.30;3.10;;;;;;;;;;6206723;28;20042;-69
2021/08/08 00:27:42;;;;;;;7.10;3.00;;;;;;;;;;6187743;28;20072;-69
2021/08/08 00:30:44;;;;;;;7.20;3.45;;;;;;;;;;6182242;28;20228;-70
2021/08/08 00:33:47;;;;;;;7.55;3.10;;;;;;;;;;6195832;28;20038;-69
2021/08/08 00:36:48;;;;;;;6.97;3.35;;;;;;;;;;6187259;28;20049;-69
2021/08/08 00:39:50;;;;;;;7.10;3.00;;;;;;;;;;6205326;28;20056;-69
2021/08/08 00:42:51;;;;;;;8.00;3.38;;;;;;;;;;6201536;28;20054;-69
2021/08/08 00:45:53;;;;;;;6.90;3.17;;;;;;;;;;6194222;28;20189;-69
2021/08/08 00:48:56;;;;;;;7.80;3.33;;;;;;;;;;6209527;28;20655;-69
2021/08/08 00:51:57;;;;;;;8.57;3.47;;;;;;;;;;6188227;28;20056;-69
2021/08/08 00:54:59;;;;;;;5.75;3.20;;;;;;;;;;6196915;28;20156;-69
2021/08/08 00:58:01;;;;;;;7.20;3.30;;;;;;;;;;6196439;28;20078;-69
2021/08/08 01:01:04;;;;;;;6.93;3.47;;;;;;;;;;6174164;28;20057;-70
2021/08/08 01:04:07;;;;;;;;;;;;;;;;;;6193345;28;20553;-70
2021/08/08 01:07:12;;;;;;;6.13;3.55;;;;;;;;;;6184775;28;19944;-69
2021/08/08 01:10:14;;;;;;;4.00;2.90;;;;;;;;;;6190057;28;20721;-70
2021/08/08 01:13:17;;;;;;;3.70;3.13;;;;;;;;;;6198397;28;21445;-69
2021/08/08 01:16:20;;;;;;;8.75;3.30;;;;;;;;;;6179084;28;20066;-69
2021/08/08 01:19:25;;;;;;;7.15;3.63;;;;;;;;;;6192060;28;20429;-69
2021/08/08 01:22:28;;;;;;;7.65;3.70;;;;;;;;;;6188510;28;20146;-69
2021/08/08 01:25:31;;;;;;;7.10;3.67;;;;;;;;;;6194708;28;20047;-70
2021/08/08 01:28:33;;;;;;;7.30;3.50;;;;;;;;;;6196978;28;20087;-69
2021/08/08 01:31:35;;;;;;;8.32;3.20;;;;;;;;;;6174984;28;20401;-70
2021/08/08 01:34:36;;;;;;;6.35;3.42;;;;;;;;;;6196246;28;20213;-69
2021/08/08 01:37:38;;;;;;;5.10;3.30;;;;;;;;;;6187295;28;20061;-69
2021/08/08 01:40:46;;;;;;;5.60;3.38;;;;;;;;;;6190649;28;20135;-69
2021/08/08 01:43:50;;;;;;;6.72;3.40;;;;;;;;;;6202129;28;20050;-69
2021/08/08 01:46:53;;;;;;;5.65;3.10;;;;;;;;;;6178773;28;20046;-69
2021/08/08 01:49:56;;;;;;;6.65;3.13;;;;;;;;;;6198816;28;20409;-69
2021/08/08 01:52:57;;;;;;;6.67;3.10;;;;;;;;;;6189327;28;20042;-70
2021/08/08 01:56:00;;;;;;;6.15;3.47;;;;;;;;;;6190079;28;20068;-69
2021/08/08 01:59:02;;;;;;;6.18;3.80;;;;;;;;;;6198461;28;20425;-69
2021/08/08 02:02:12;;;;;;;7.00;3.60;;;;;;;;;;6180347;28;20063;-69
2021/08/08 02:05:14;;;;;;;7.10;3.60;;;;;;;;;;6188041;28;22217;-70
2021/08/08 02:08:15;;;;;;;5.55;3.90;;;;;;;;;;6199916;28;20062;-69
2021/08/08 02:11:18;;;;;;;4.78;3.47;;;;;;;;;;6186734;28;20046;-69
2021/08/08 02:14:20;;;;;;;7.03;3.50;;;;;;;;;;6197738;28;20092;-69
2021/08/08 02:17:21;;;;;;;6.13;4.07;;;;;;;;;;6175516;28;20046;-69
2021/08/08 02:20:23;;;;;;;9.38;3.97;;;;;;;;;;6181553;28;20164;-69
2021/08/08 02:23:24;;;;;;;7.20;3.85;;;;;;;;;;6193157;28;20103;-69
2021/08/08 02:26:27;;;;;;;6.78;4.03;;;;;;;;;;6184952;28;20042;-69
2021/08/08 02:29:29;;;;;;;8.90;3.65;;;;;;;;;;6196126;28;20086;-69
2021/08/08 02:32:30;;;;;;;5.60;4.18;;;;;;;;;;6177402;28;20718;-69
2021/08/08 02:35:32;;;;;;;6.40;4.03;;;;;;;;;;6163899;28;20053;-69
2021/08/08 02:38:34;;;;;;;8.70;4.30;;;;;;;;;;6202788;28;20494;-69
2021/08/08 02:41:37;;;;;;;9.32;4.30;;;;;;;;;;6196357;28;20200;-69
2021/08/08 02:44:38;;;;;;;6.38;3.88;;;;;;;;;;6204843;28;20031;-69
2021/08/08 02:47:40;;;;;;;7.78;3.80;;;;;;;;;;6178628;28;20049;-69
2021/08/08 02:50:41;;;;;;;10.10;4.05;;;;;;;;;;6198391;28;20389;-69
2021/08/08 02:53:43;;;;;;;4.47;3.38;;;;;;;;;;6202385;28;20123;-69
2021/08/08 02:56:47;;;;;;;7.10;3.80;;;;;;;;;;6192781;28;20056;-69
2021/08/08 02:59:48;;;;;;;5.38;3.45;;;;;;;;;;6207405;28;20057;-69
2021/08/08 03:02:51;;;;;;;5.18;3.13;;;;;;;;;;6187645;28;20207;-70
2021/08/08 03:05:52;;;;;;;5.43;3.93;;;;;;;;;;6190039;28;20049;-69
2021/08/08 03:08:54;;;;;;;5.85;3.50;;;;;;;;;;6213837;28;20180;-69
2021/08/08 03:11:57;;;;;;;7.35;3.50;;;;;;;;;;6192241;28;20043;-69
2021/08/08 03:14:58;;;;;;;6.72;4.05;;;;;;;;;;6208422;28;20061;-69
2021/08/08 03:18:00;;;;;;;8.52;4.00;;;;;;;;;;6190260;28;20477;-69
2021/08/08 03:21:02;;;;;;;7.93;4.07;;;;;;;;;;6191116;28;20759;-69
2021/08/08 03:24:04;;;;;;;9.60;3.92;;;;;;;;;;6200483;28;20139;-69
2021/08/08 03:27:07;;;;;;;6.47;3.70;;;;;;;;;;6189291;28;20095;-69
2021/08/08 03:30:10;;;;;;;5.90;3.63;;;;;;;;;;6184378;28;20107;-70
2021/08/08 03:33:12;;;;;;;5.78;3.78;;;;;;;;;;6183859;28;20042;-69
2021/08/08 03:36:13;;;;;;;7.93;4.10;;;;;;;;;;6179053;28;20050;-69
2021/08/08 03:39:16;;;;;;;6.30;3.65;;;;;;;;;;6195479;28;20034;-69
2021/08/08 03:42:19;;;;;;;6.47;3.87;;;;;;;;;;6184230;28;20621;-69
2021/08/08 03:45:21;;;;;;;6.50;4.05;;;;;;;;;;6181207;28;20091;-69
2021/08/08 03:48:22;;;;;;;7.13;4.25;;;;;;;;;;6201369;28;20498;-69
2021/08/08 03:51:24;;;;;;;8.40;4.30;;;;;;;;;;6191613;28;20197;-69
2021/08/08 03:54:26;;;;;;;8.15;4.93;;;;;;;;;;6199065;28;20046;-69
2021/08/08 03:57:29;;;;;;;9.68;5.90;;;;;;;;;;6190575;28;20430;-69
2021/08/08 04:00:31;;;;;;;7.32;5.40;;;;;;;;;;6190170;28;20647;-70
2021/08/08 04:03:34;;;;;;;9.93;5.85;;;;;;;;;;6194379;28;20120;-69
2021/08/08 04:06:35;;;;;;;9.20;5.63;;;;;;;;;;6187957;28;20042;-69
2021/08/08 04:09:37;;;;;;;8.95;5.25;;;;;;;;;;6201872;28;20295;-69
2021/08/08 04:12:40;;;;;;;9.73;6.32;;;;;;;;;;6190012;28;20070;-69
2021/08/08 04:15:41;;;;;;;14.60;9.38;;;;;;;;;;6187123;28;20092;-69
2021/08/08 04:18:43;;;;;;;15.82;9.73;;;;;;;;;;6195753;28;20046;-69
2021/08/08 04:21:44;;;;;;;10.57;9.02;;;;;;;;;;6188554;28;20101;-69
2021/08/08 04:24:46;;;;;;;12.68;9.50;;;;;;;;;;6202748;28;20068;-69
2021/08/08 04:27:49;;;;;;;14.13;10.48;;;;;;;;;;6188393;28;20177;-69
2021/08/08 04:30:51;;;;;;;14.50;10.27;;;;;;;;;;6175808;28;20429;-69
2021/08/08 04:33:52;;;;;;;14.05;9.98;;;;;;;;;;6199683;28;20061;-69
2021/08/08 04:36:54;;;;;;;13.75;10.15;;;;;;;;;;6190800;28;20119;-69
2021/08/08 04:39:55;;;;;;;14.70;9.57;;;;;;;;;;6208815;28;20104;-69
2021/08/08 04:42:59;;;;;;;13.25;9.85;;;;;;;;;;6199907;28;20189;-69
2021/08/08 04:46:00;;;;;;;;;;;;;;;;;;6182421;28;20061;-69
2021/08/08 04:49:02;;;;;;;15.80;10.95;;;;;;;;;;6201484;28;19929;-69
2021/08/08 04:52:04;;;;;;;15.15;10.18;;;;;;;;;;6201486;28;20189;-69
2021/08/08 04:55:07;;;;;;;14.07;10.73;;;;;;;;;;6204203;28;20099;-69
2021/08/08 04:58:10;;;;;;;15.32;10.50;;;;;;;;;;6196254;28;20482;-69
2021/08/08 05:01:12;;;;;;;16.60;11.10;;;;;;;;;;6178141;28;20108;-69
2021/08/08 05:04:13;;;;;;;12.25;9.35;;;;;;;;;;6203779;28;20038;-69
2021/08/08 05:07:15;;;;;;;14.73;10.38;;;;;;;;;;6187408;28;20055;-69
2021/08/08 05:10:18;;;;;;;11.35;9.23;;;;;;;;;;6192063;28;20127;-70
2021/08/08 05:13:21;;;;;;;;;;;;;;;;;;6198554;28;20057;-69
2021/08/08 05:16:22;;;;;;;13.85;9.20;;;;;;;;;;6186431;28;19921;-69
2021/08/08 05:19:24;;;;;;;12.13;9.27;;;;;;;;;;6197003;28;20111;-69
2021/08/08 05:22:26;;;;;;;12.35;7.28;;;;;;;;;;6187283;28;20144;-69
2021/08/08 05:25:27;;;;;;;12.70;6.80;;;;;;;;;;6186238;28;20074;-69
2021/08/08 05:28:30;;;;;;;12.77;6.25;;;;;;;;;;6195922;28;20185;-69
2021/08/08 05:31:32;;;;;;;10.55;5.70;;;;;;;;;;6170234;28;20054;-70
2021/08/08 05:34:33;;;;;;;9.07;6.47;;;;;;;;;;6196661;28;20570;-69
2021/08/08 05:37:35;;;;;;;9.13;5.90;;;;;;;;;;6187556;28;20057;-69
2021/08/08 05:40:36;;;;;;;8.52;5.68;;;;;;;;;;6181933;28;20375;-69
2021/08/08 05:43:39;;;;;;;7.30;5.55;;;;;;;;;;6199750;28;20443;-69
2021/08/08 05:46:41;;;;;;;10.27;5.93;;;;;;;;;;6175449;28;20498;-69
2021/08/08 05:49:42;;;;;;;12.63;7.28;;;;;;;;;;6197245;28;20047;-69
2021/08/08 05:52:48;;;;;;;11.77;8.00;;;;;;;;;;6188650;28;20046;-68
2021/08/08 05:55:49;;;;;;;15.35;8.35;;;;;;;;;;6192775;28;20666;-68
2021/08/08 05:58:52;;;;;;;8.45;6.95;;;;;;;;;;6202409;28;20490;-69
2021/08/08 06:01:54;;;;;;;11.65;7.38;;;;;;;;;;6185365;28;20486;-69
2021/08/08 06:04:55;;;;;;;9.23;7.10;;;;;;;;;;6197322;28;20430;-72
2021/08/08 06:07:57;;;;;;;9.82;7.20;;;;;;;;;;6190540;28;20537;-69
2021/08/08 06:10:58;;;;;;;12.02;7.80;;;;;;;;;;6194183;28;20041;-71
2021/08/08 06:14:01;;;;;;;10.35;7.13;;;;;;;;;;6201794;28;20493;-68
2021/08/08 06:17:03;;;;;;;9.40;6.38;;;;;;;;;;6181927;28;20153;-69
2021/08/08 06:20:06;;;;;;;8.68;5.85;;;;;;;;;;6193874;28;20399;-71
2021/08/08 06:23:08;;;;;;;7.75;5.85;;;;;;;;;;6189428;28;20137;-69
2021/08/08 06:26:09;;;;;;;10.57;6.97;;;;;;;;;;6190042;28;20056;-69
2021/08/08 06:29:13;;;;;;;12.63;7.72;;;;;;;;;;6203490;28;20753;-71
2021/08/08 06:32:14;;;;;;;12.43;7.22;;;;;;;;;;6181034;28;20064;-69
2021/08/08 06:35:16;;;;;;;9.65;7.57;;;;;;;;;;6183664;28;20204;-72
2021/08/08 06:38:17;;;;;;;12.48;8.60;;;;;;;;;;6195326;28;20058;-69
2021/08/08 06:41:19;;;;;;;11.30;7.57;;;;;;;;;;6184603;28;20078;-71
2021/08/08 06:44:22;;;;;;;10.52;7.63;;;;;;;;;;6198163;28;20171;-69
2021/08/08 06:47:23;;;;;;;13.20;7.90;;;;;;;;;;6140874;28;20049;-69
2021/08/08 06:50:25;;;;;;;10.80;7.45;;;;;;;;;;6173064;28;20627;-69
2021/08/08 06:53:27;;;;;;;10.30;7.65;;;;;;;;;;6195056;28;20177;-69
2021/08/08 06:56:29;;;;;;;14.40;8.25;;;;;;;;;;6183503;28;20049;-69
2021/08/08 06:59:32;;;;;;;10.63;7.30;;;;;;;;;;6197594;28;20177;-68
2021/08/08 07:02:33;;;;;;;12.52;7.60;;;;;;;;;;6170757;28;20184;-69
2021/08/08 07:05:35;;;;;;;12.40;8.18;;;;;;;;;;6184976;28;20038;-69
2021/08/08 07:08:37;;;;;;;7.95;5.10;;;;;;;;;;6195590;28;20062;-71
2021/08/08 07:11:38;;;;;;;7.63;4.88;;;;;;;;;;6188652;28;20599;-71
2021/08/08 07:14:41;;;;;;;6.15;4.38;;;;;;;;;;6194694;28;20137;-71
2021/08/08 07:17:43;;;;;;;6.78;4.15;;;;;;;;;;6144019;28;20196;-71
2021/08/08 07:20:44;;;;;;;7.65;4.68;;;;;;;;;;6178521;28;20054;-71
2021/08/08 07:23:46;;;;;;;5.72;4.35;;;;;;;;;;6203904;28;20046;-71
2021/08/08 07:26:48;;;;;;;10.05;4.82;;;;;;;;;;6189753;28;20074;-71
2021/08/08 07:29:50;;;;;;;10.07;4.82;;;;;;;;;;6199866;28;20042;-71
2021/08/08 07:32:53;;;;;;;10.52;4.55;;;;;;;;;;6174260;28;20174;-71
2021/08/08 07:35:54;;;;;;;8.82;4.88;;;;;;;;;;6190711;28;20494;-71
2021/08/08 07:38:56;;;;;;;8.73;4.70;;;;;;;;;;6201414;28;20093;-71
2021/08/08 07:41:57;;;;;;;11.05;5.32;;;;;;;;;;6195705;28;20104;-71
2021/08/08 07:45:00;;;;;;;9.18;4.68;;;;;;;;;;6202878;28;20160;-71
2021/08/08 07:48:02;;;;;;;9.15;4.65;;;;;;;;;;6173663;28;20050;-71
2021/08/08 07:51:03;;;;;;;7.97;4.38;;;;;;;;;;6185297;28;20037;-71
2021/08/08 07:54:05;;;;;;;5.32;3.67;;;;;;;;;;6202463;28;20124;-71
2021/08/08 07:57:07;;;;;;;5.90;3.10;;;;;;;;;;6189958;28;20213;-71
2021/08/08 08:00:10;;;;;;;9.07;3.30;;;;;;;;;;6199746;28;20042;-71
2021/08/08 08:03:12;;;;;;;6.95;3.55;;;;;;;;;;6192035;28;20112;-71
2021/08/08 08:06:14;;;;;;;6.45;3.10;;;;;;;;;;6187718;28;20053;-72
2021/08/08 08:09:15;;;;;;;6.18;3.40;;;;;;;;;;6202214;28;20137;-71
2021/08/08 08:12:17;;;;;;;5.60;2.97;;;;;;;;;;6192505;28;20816;-71
2021/08/08 08:15:20;;;;;;;5.65;2.90;;;;;;;;;;6188214;28;20402;-71
2021/08/08 08:18:21;;;;;;;;;;;;;;;;;;6195010;28;20164;-71
2021/08/08 08:21:23;;;;;;;7.10;3.60;;;;;;;;;;6190437;28;19925;-71
2021/08/08 08:24:24;;;;;;;6.30;3.00;;;;;;;;;;6201562;28;20046;-71
2021/08/08 08:27:26;;;;;;;6.35;3.20;;;;;;;;;;6190586;28;20502;-71
2021/08/08 08:30:29;;;;;;;7.53;3.17;;;;;;;;;;6186054;28;20050;-71
2021/08/08 08:33:30;;;;;;;7.45;3.17;;;;;;;;;;6192330;28;20050;-71
2021/08/08 08:36:32;;;;;;;8.45;3.00;;;;;;;;;;6187985;28;20670;-71
2021/08/08 08:39:34;;;;;;;6.45;2.97;;;;;;;;;;6205404;28;20132;-71
2021/08/08 08:42:40;;;;;;;6.47;3.20;;;;;;;;;;6195233;28;20089;-71
2021/08/08 08:45:45;;;;;;;7.03;3.42;;;;;;;;;;6193168;28;20043;-71
2021/08/08 08:48:46;;;;;;;9.02;2.95;;;;;;;;;;6201070;28;20046;-71
2021/08/08 08:51:54;;;;;;;6.75;3.13;;;;;;;;;;6192378;28;20140;-71
2021/08/08 08:54:56;;;;;;;7.47;3.22;;;;;;;;;;6198263;28;20035;-71
2021/08/08 08:57:58;;;;;;;7.28;2.78;;;;;;;;;;6189491;28;20094;-71
2021/08/08 09:01:01;;;;;;;5.37;2.60;;;;;;;;;;6183382;28;20038;-71
2021/08/08 09:04:03;;;;;;;;;;;;;;;;;;6196666;28;20505;-71
2021/08/08 09:07:05;;;;;;;9.05;2.90;;;;;;;;;;6191689;28;20927;-71
2021/08/08 09:10:11;;;;;;;7.23;3.17;;;;;;;;;;6200886;28;20042;-72
2021/08/08 09:13:12;;;;;;;8.30;3.17;;;;;;;;;;6197896;28;20181;-71
2021/08/08 09:16:17;;;;;;;8.27;2.90;;;;;;;;;;6185703;28;20054;-71
2021/08/08 09:19:20;;;;;;;7.57;2.95;;;;;;;;;;6200187;28;20549;-71
2021/08/08 09:22:22;;;;;;;;;;;;;;;;;;6188035;28;20097;-72
2021/08/08 09:25:23;;;;;;;5.80;3.08;;;;;;;;;;6187924;28;20290;-71
2021/08/08 09:28:29;;;;;;;3.65;2.72;;;;;;;;;;6198763;28;20494;-71
2021/08/08 09:31:39;;;;;;;6.80;2.60;;;;;;;;;;6178796;28;20081;-71
2021/08/08 09:34:43;;;;;;;5.57;3.03;;;;;;;;;;6198941;28;20122;-71
2021/08/08 09:37:44;;;;;;;5.35;2.78;;;;;;;;;;6179760;28;20104;-71
2021/08/08 09:40:56;;;;;;;7.38;3.00;;;;;;;;;;6188919;28;20467;-71
2021/08/08 09:44:06;;;;;;;6.80;2.75;;;;;;;;;;6197681;28;20054;-72
2021/08/08 09:47:09;;;;;;;7.05;3.28;;;;;;;;;;6179187;28;20129;-71
2021/08/08 09:50:12;;;;;;;7.63;3.03;;;;;;;;;;6189019;28;20054;-72
2021/08/08 09:53:18;;;;;;;4.93;2.63;;;;;;;;;;6192861;28;20035;-71
2021/08/08 09:56:20;;;;;;;6.90;3.30;;;;;;;;;;6190617;28;20046;-72
2021/08/08 09:59:21;;;;;;;4.60;2.60;;;;;;;;;;6200672;28;20057;-71
2021/08/08 10:02:24;;;;;;;4.30;2.47;;;;;;;;;;6175713;28;20121;-71
2021/08/08 10:05:26;;;;;;;6.25;3.05;;;;;;;;;;6189202;28;20058;-72
2021/08/08 10:08:28;;;;;;;10.13;3.00;;;;;;;;;;6196192;28;20556;-71
2021/08/08 10:11:30;;;;;;;6.50;3.45;;;;;;;;;;6192647;28;20057;-71
2021/08/08 10:14:32;;;;;;;8.73;3.13;;;;;;;;;;6200811;28;20046;-71
2021/08/08 10:17:36;;;;;;;6.22;3.20;;;;;;;;;;6177747;28;20600;-71
2021/08/08 10:20:37;;;;;;;6.55;3.30;;;;;;;;;;6188173;28;20051;-71
2021/08/08 10:23:39;;;;;;;3.83;2.83;;;;;;;;;;6200899;28;20165;-71
2021/08/08 10:26:41;;;;;;;5.60;2.90;;;;;;;;;;6195074;28;20146;-71
2021/08/08 10:29:43;;;;;;;6.10;3.30;;;;;;;;;;6203408;28;21716;-71
2021/08/08 10:32:46;;;;;;;4.97;2.92;;;;;;;;;;6178341;28;20052;-72
2021/08/08 10:35:48;;;;;;;4.18;2.40;;;;;;;;;;6189442;28;20129;-71
2021/08/08 10:38:51;;;;;;;7.65;2.90;;;;;;;;;;6210126;28;20046;-71
2021/08/08 10:41:57;;;;;;;5.97;3.10;;;;;;;;;;6200770;28;20060;-71
2021/08/08 10:44:59;;;;;;;5.30;2.95;;;;;;;;;;6213783;28;20065;-71
2021/08/08 10:48:03;;;;;;;4.75;2.40;;;;;;;;;;6189621;28;20049;-71
2021/08/08 10:51:16;;;;;;;5.60;3.25;;;;;;;;;;6204009;28;20101;-71
2021/08/08 10:54:18;;;;;;;6.45;3.00;;;;;;;;;;6210263;28;20110;-71
2021/08/08 10:57:20;;;;;;;6.60;2.65;;;;;;;;;;6199510;28;20192;-72
2021/08/08 11:00:22;;;;;;;6.40;2.90;;;;;;;;;;6193029;28;20136;-72
2021/08/08 11:03:25;;;;;;;5.87;3.00;;;;;;;;;;6204388;28;20512;-72
2021/08/08 11:06:28;;;;;;;6.65;2.85;;;;;;;;;;6200196;28;20515;-71
2021/08/08 11:09:30;;;;;;;6.35;2.97;;;;;;;;;;6211542;28;20099;-71
2021/08/08 11:12:33;;;;;;;4.82;3.10;;;;;;;;;;6206538;28;20050;-71
2021/08/08 11:15:35;;;;;;;6.07;2.75;;;;;;;;;;6198738;28;20909;-71
2021/08/08 11:18:38;;;;;;;5.00;2.40;;;;;;;;;;6202300;28;20057;-71
2021/08/08 11:21:40;;;;;;;6.40;3.42;;;;;;;;;;6195099;28;20124;-71
2021/08/08 11:24:43;;;;;;;4.30;2.45;;;;;;;;;;6198974;28;20049;-71
2021/08/08 11:27:46;;;;;;;5.13;2.28;;;;;;;;;;6189585;28;20068;-71
2021/08/08 11:30:47;;;;;;;4.38;2.30;;;;;;;;;;6187075;28;20053;-71
2021/08/08 11:33:57;;;;;;;6.20;2.50;;;;;;;;;;6194065;28;20696;-71
2021/08/08 11:36:58;;;;;;;4.82;2.60;;;;;;;;;;6182758;28;20508;-71
2021/08/08 11:40:00;;;;;;;4.30;2.40;;;;;;;;;;6198168;28;20089;-71
2021/08/08 11:43:05;;;;;;;5.60;2.40;;;;;;;;;;6188969;28;20173;-71
2021/08/08 11:46:07;;;;;;;4.90;2.13;;;;;;;;;;6192341;28;20137;-71
2021/08/08 11:49:20;;;;;;;3.20;2.30;;;;;;;;;;6215373;28;20062;-72
2021/08/08 11:52:22;;;;;;;4.30;2.35;;;;;;;;;;6207094;28;20474;-71
2021/08/08 11:55:24;;;;;;;5.18;2.20;;;;;;;;;;6206648;28;20121;-72
2021/08/08 11:58:25;;;;;;;3.83;2.55;;;;;;;;;;6211088;28;20142;-71
2021/08/08 12:01:27;;;;;;;5.60;2.40;;;;;;;;;;6193677;28;20125;-71
2021/08/08 12:04:32;;;;;;;5.78;2.05;;;;;;;;;;6200503;28;20046;-71
2021/08/08 12:07:33;;;;;;;3.38;2.30;;;;;;;;;;6188527;28;20116;-72
2021/08/08 12:10:36;;;;;;;4.97;2.25;;;;;;;;;;6194910;28;20052;-70
2021/08/08 12:13:38;;;;;;;5.13;2.53;;;;;;;;;;6205579;28;20437;-71
2021/08/08 12:16:39;;;;;;;3.90;2.30;;;;;;;;;;6192595;28;20050;-71
2021/08/08 12:19:44;;;;;;;3.97;2.08;;;;;;;;;;6197850;28;20522;-71
2021/08/08 12:22:46;;;;;;;5.40;2.72;;;;;;;;;;6192334;28;20299;-72
2021/08/08 12:25:58;;;;;;;3.90;2.17;;;;;;;;;;6194700;28;20512;-71
2021/08/08 12:29:01;;;;;;;4.55;2.60;;;;;;;;;;6199921;28;20494;-71
2021/08/08 12:32:12;;;;;;;3.65;2.08;;;;;;;;;;6184653;28;20092;-71
2021/08/08 12:35:17;;;;;;;6.00;2.55;;;;;;;;;;6195857;28;20046;-72
2021/08/08 12:38:19;;;;;;;7.10;2.40;;;;;;;;;;6203559;28;20132;-71
2021/08/08 12:41:28;;;;;;;4.35;2.30;;;;;;;;;;6196349;28;20121;-71
2021/08/08 12:44:36;;;;;;;4.28;2.17;;;;;;;;;;6207307;28;20097;-71
2021/08/08 12:47:38;;;;;;;7.53;3.00;;;;;;;;;;6194085;28;20376;-69
2021/08/08 12:50:42;;;;;;;4.88;2.40;;;;;;;;;;6189953;28;20046;-71
2021/08/08 12:53:44;;;;;;;4.35;2.50;;;;;;;;;;6202464;28;20363;-71
2021/08/08 12:56:45;;;;;;;4.30;2.25;;;;;;;;;;6197002;28;20046;-71
2021/08/08 12:59:47;;;;;;;3.75;2.17;;;;;;;;;;6199186;28;20140;-71
2021/08/08 13:02:49;;;;;;;3.97;2.60;;;;;;;;;;6190422;28;20116;-70
2021/08/08 13:05:52;;;;;;;3.78;2.38;;;;;;;;;;6189658;28;20113;-70
2021/08/08 13:08:54;;;;;;;7.13;2.88;;;;;;;;;;6200703;28;20140;-70
2021/08/08 13:11:57;;;;;;;7.03;2.80;;;;;;;;;;6193485;28;20050;-70
2021/08/08 13:14:59;;;;;;;4.88;2.75;;;;;;;;;;6205408;28;20049;-70
2021/08/08 13:18:00;;;;;;;4.53;2.50;;;;;;;;;;6183383;28;20062;-71
2021/08/08 13:21:04;;;;;;;4.40;2.80;;;;;;;;;;6188347;28;20047;-70
2021/08/08 13:24:05;;;;;;;3.20;2.08;;;;;;;;;;6202262;28;20124;-70
2021/08/08 13:27:07;;;;;;;3.83;2.13;;;;;;;;;;6190739;28;20545;-71
2021/08/08 13:30:10;;;;;;;4.15;2.78;;;;;;;;;;6201629;28;20122;-71
2021/08/08 13:33:12;;;;;;;5.20;2.35;;;;;;;;;;6187050;28;20045;-71
2021/08/08 13:36:15;;;;;;;6.13;2.30;;;;;;;;;;6191087;28;20042;-71
2021/08/08 13:39:16;;;;;;;4.85;2.20;;;;;;;;;;6199597;28;20413;-71
2021/08/08 13:42:18;;;;;;;5.10;2.33;;;;;;;;;;6194100;28;20048;-71
2021/08/08 13:45:19;;;;;;;5.07;2.72;;;;;;;;;;6195310;28;20088;-71
2021/08/08 13:48:21;;;;;;;5.13;2.53;;;;;;;;;;6192672;28;20452;-70
2021/08/08 13:51:25;;;;;;;6.30;3.03;;;;;;;;;;6190344;28;20116;-71
2021/08/08 13:54:27;;;;;;;5.55;2.10;;;;;;;;;;6197950;28;20129;-70
2021/08/08 13:57:29;;;;;;;4.22;2.38;;;;;;;;;;6189344;28;20374;-70
2021/08/08 14:00:30;;;;;;;5.95;2.47;;;;;;;;;;6193098;28;20193;-71
2021/08/08 14:03:32;;;;;;;5.40;3.00;;;;;;;;;;6174562;28;20535;-70
2021/08/08 14:06:34;;;;;;;4.05;2.42;;;;;;;;;;6179840;28;20052;-70
2021/08/08 14:09:36;;;;;;;5.43;2.47;;;;;;;;;;6199215;28;20088;-71
2021/08/08 14:12:38;;;;;;;4.07;2.50;;;;;;;;;;6187969;28;20092;-71
2021/08/08 14:15:39;;;;;;;;;;;;;;;;;;6192732;28;20038;-70
2021/08/08 14:18:41;;;;;;;5.57;2.30;;;;;;;;;;6190947;28;20035;-71
2021/08/08 14:21:44;;;;;;;5.93;2.47;;;;;;;;;;6148968;28;1108508;-71
2021/08/08 14:24:46;;;;;;;3.53;2.45;;;;;;;;;;6199379;28;20054;-71
2021/08/08 14:27:49;;;;;;;3.60;1.90;;;;;;;;;;6193122;28;20060;-71
2021/08/08 14:30:50;;;;;;;3.55;2.33;;;;;;;;;;6190339;28;20657;-71
2021/08/08 14:33:52;;;;;;;3.10;2.30;;;;;;;;;;6197939;28;20556;-71
2021/08/08 14:36:55;;;;;;;4.07;2.00;;;;;;;;;;6185894;28;20054;-70
2021/08/08 14:39:57;;;;;;;3.22;1.90;;;;;;;;;;6201337;28;20042;-71
2021/08/08 14:42:58;;;;;;;4.95;2.40;;;;;;;;;;6201728;28;20072;-71
2021/08/08 14:46:00;;;;;;;2.67;1.88;;;;;;;;;;6199322;28;20097;-70
2021/08/08 14:49:01;;;;;;;4.88;2.00;;;;;;;;;;6209998;28;20130;-71
2021/08/08 14:52:05;;;;;;;4.47;2.20;;;;;;;;;;6198356;28;20044;-71
2021/08/08 14:55:08;;;;;;;3.95;2.35;;;;;;;;;;6199203;28;20133;-72
2021/08/08 14:58:09;;;;;;;4.90;1.92;;;;;;;;;;6193807;28;20042;-71
2021/08/08 15:01:11;;;;;;;5.57;2.33;;;;;;;;;;6185912;28;20124;-71
2021/08/08 15:04:12;;;;;;;4.53;1.90;;;;;;;;;;6193916;28;20445;-71
2021/08/08 15:07:15;;;;;;;4.18;2.00;;;;;;;;;;6183368;28;20545;-71
2021/08/08 15:10:17;;;;;;;4.38;2.17;;;;;;;;;;6188213;28;20497;-71
2021/08/08 15:13:18;;;;;;;6.18;2.05;;;;;;;;;;6195843;28;20143;-71
2021/08/08 15:16:20;;;;;;;5.97;2.45;;;;;;;;;;6191842;28;20108;-71
2021/08/08 15:19:21;;;;;;;4.35;2.10;;;;;;;;;;6200489;28;20050;-71
2021/08/08 15:22:24;;;;;;;3.30;2.13;;;;;;;;;;6190645;28;20062;-71
2021/08/08 15:25:27;;;;;;;2.88;2.03;;;;;;;;;;6195055;28;20162;-71
2021/08/08 15:28:28;;;;;;;3.38;1.70;;;;;;;;;;6205132;28;20057;-70
2021/08/08 15:31:30;;;;;;;5.32;2.05;;;;;;;;;;6187126;28;20076;-72
2021/08/08 15:34:31;;;;;;;3.08;2.00;;;;;;;;;;6201445;28;20587;-71
2021/08/08 15:37:34;;;;;;;3.05;2.35;;;;;;;;;;6186648;28;21458;-71
2021/08/08 15:40:37;;;;;;;4.88;2.05;;;;;;;;;;6192937;28;20549;-70
2021/08/08 15:43:38;;;;;;;2.67;2.00;;;;;;;;;;6199756;28;20104;-70
2021/08/08 15:46:40;;;;;;;5.68;2.25;;;;;;;;;;6189367;28;20056;-70
2021/08/08 15:49:41;;;;;;;4.23;2.10;;;;;;;;;;6197094;28;20107;-70
2021/08/08 15:52:44;;;;;;;3.80;2.40;;;;;;;;;;6197129;28;20197;-70
2021/08/08 15:55:46;;;;;;;4.43;2.00;;;;;;;;;;6188821;28;20054;-70
2021/08/08 15:58:47;;;;;;;4.45;2.40;;;;;;;;;;6202576;28;20499;-70
2021/08/08 16:01:49;;;;;;;4.05;1.90;;;;;;;;;;6186635;28;20558;-70
2021/08/08 16:04:52;;;;;;;4.15;2.28;;;;;;;;;;6201111;28;20066;-70
2021/08/08 16:07:55;;;;;;;2.92;2.55;;;;;;;;;;6194736;28;20058;-69
2021/08/08 16:10:56;;;;;;;3.15;1.95;;;;;;;;;;6196363;28;20140;-70
2021/08/08 16:13:58;;;;;;;3.30;2.13;;;;;;;;;;6206181;28;20149;-70
2021/08/08 16:16:59;;;;;;;4.22;2.00;;;;;;;;;;6191323;28;20039;-70
2021/08/08 16:20:01;;;;;;;6.93;2.30;;;;;;;;;;6200563;28;20069;-70
2021/08/08 16:23:04;;;;;;;3.05;2.10;;;;;;;;;;6195015;28;20486;-70
2021/08/08 16:26:06;;;;;;;4.38;1.90;;;;;;;;;;6195973;28;20053;-70
2021/08/08 16:29:07;;;;;;;2.30;1.90;;;;;;;;;;6202890;28;20046;-70
2021/08/08 16:32:10;;;;;;;4.40;2.30;;;;;;;;;;6188959;28;20041;-70
2021/08/08 16:35:12;;;;;;;;;;;;;;;;;;6191028;28;20399;-70
2021/08/08 16:38:14;;;;;;;4.30;2.15;;;;;;;;;;6201341;28;19940;-70
2021/08/08 16:41:16;;;;;;;3.75;2.40;;;;;;;;;;6195652;28;20409;-70
2021/08/08 16:44:17;;;;;;;5.63;2.10;;;;;;;;;;6206190;28;20046;-70
2021/08/08 16:47:19;;;;;;;6.25;2.55;;;;;;;;;;6195910;28;20664;-70
2021/08/08 16:50:21;;;;;;;6.95;2.25;;;;;;;;;;6198465;28;20050;-71
2021/08/08 16:53:24;;;;;;;3.35;1.90;;;;;;;;;;6202313;28;20129;-70
2021/08/08 16:56:26;;;;;;;5.20;2.00;;;;;;;;;;6196311;28;20133;-70
2021/08/08 16:59:28;;;;;;;;;;;;;;;;;;6202185;28;20046;-70
2021/08/08 17:02:30;;;;;;;4.78;2.20;;;;;;;;;;6185879;28;19975;-70
2021/08/08 17:05:32;;;;;;;4.78;2.35;;;;;;;;;;6193829;28;20200;-70
2021/08/08 17:08:35;;;;;;;6.03;2.42;;;;;;;;;;6202304;28;20453;-70
2021/08/08 17:11:36;;;;;;;;;;;;;;;;;;6194994;28;20046;-70
2021/08/08 17:14:38;;;;;;;3.10;1.83;;;;;;;;;;6201432;28;20032;-70
2021/08/08 17:17:39;;;;;;;4.20;2.35;;;;;;;;;;6188418;28;20050;-70
2021/08/08 17:20:41;;;;;;;4.10;2.20;;;;;;;;;;6186760;28;20076;-70
2021/08/08 17:23:44;;;;;;;3.92;2.05;;;;;;;;;;6197283;28;20034;-70
2021/08/08 17:26:46;;;;;;;7.88;2.03;;;;;;;;;;6192345;28;20038;-70
2021/08/08 17:29:47;;;;;;;4.38;2.53;;;;;;;;;;6198686;28;20038;-70
2021/08/08 17:32:49;;;;;;;5.57;2.30;;;;;;;;;;6181371;28;20545;-70
2021/08/08 17:35:50;;;;;;;4.47;2.50;;;;;;;;;;6188939;28;20931;-70
2021/08/08 17:38:53;;;;;;;6.63;2.40;;;;;;;;;;6197640;28;20077;-70
2021/08/08 17:41:56;;;;;;;;;;;;;;;;;;6195559;28;20041;-70
2021/08/08 17:44:57;;;;;;;4.10;2.33;;;;;;;;;;6202060;28;19929;-70
2021/08/08 17:47:59;;;;;;;3.05;2.15;;;;;;;;;;6184995;28;20483;-70
2021/08/08 17:51:02;;;;;;;4.72;2.33;;;;;;;;;;6190311;28;20057;-70
2021/08/08 17:54:05;;;;;;;4.65;2.20;;;;;;;;;;6197851;28;20053;-70
2021/08/08 17:57:06;;;;;;;4.75;2.35;;;;;;;;;;6194709;28;20232;-70
2021/08/08 18:00:08;;;;;;;5.45;2.38;;;;;;;;;;6199853;28;20044;-71
2021/08/08 18:03:10;;;;;;;6.53;2.40;;;;;;;;;;6192891;28;20125;-70
2021/08/08 18:06:11;;;;;;;4.95;2.20;;;;;;;;;;6188162;28;20092;-70
2021/08/08 18:09:16;;;;;;;6.20;2.15;;;;;;;;;;6201637;28;20046;-70
2021/08/08 18:12:18;;;;;;;3.13;2.22;;;;;;;;;;6190609;28;20490;-70